Time;durP1;ratioP1;P1;durP2;ratioP2;P2;SDS_P1;SDS_P2;PMS_P1;PMS_P2;Temp;Humidity;BMP_temperature;BMP_pressure;BME280_temperature;BME280_humidity;BME280_pressure;Samples;Min_cycle;Max_cycle;Signal;HPM_P1;HPM_P2
2021/12/19 00:01:01;;;;;;;11.00;5.42;;;;;;;-0.38;99.83;99019.36;1765632;81;20948;-68
2021/12/19 00:08:50;;;;;;;7.15;4.92;;;;;;;-0.33;99.80;99010.45;1765623;81;20848;-69
2021/12/19 00:11:20;;;;;;;8.23;5.20;;;;;;;-0.33;99.82;99010.45;1765772;81;21378;-70
2021/12/19 00:13:51;;;;;;;11.45;6.33;;;;;;;-0.33;99.88;99003.67;1765787;81;20994;-67
2021/12/19 00:16:21;;;;;;;12.73;6.35;;;;;;;-0.32;99.95;98994.99;1735479;81;20957;-67
2021/12/19 00:18:48;;;;;;;13.68;7.28;;;;;;;-0.31;99.89;98993.41;1765809;81;21141;-66
2021/12/19 00:21:15;;;;;;;25.15;10.75;;;;;;;-0.31;99.93;98986.64;1765746;81;21477;-72
2021/12/19 00:23:42;;;;;;;12.68;7.08;;;;;;;-0.30;99.96;98985.55;1760697;81;21044;-67
2021/12/19 00:26:09;;;;;;;20.08;9.00;;;;;;;-0.28;99.95;98974.45;1765827;81;20845;-67
2021/12/19 00:28:36;;;;;;;20.70;9.53;;;;;;;-0.27;100.00;98981.48;1766065;81;20844;-67
2021/12/19 00:31:04;;;;;;;18.62;8.78;;;;;;;-0.26;100.00;98981.23;1765999;81;21319;-67
2021/12/19 00:33:32;;;;;;;15.40;8.13;;;;;;;-0.26;100.00;98970.39;1765869;81;20963;-67
2021/12/19 00:36:00;;;;;;;14.20;8.38;;;;;;;-0.23;100.00;98960.12;1766281;81;20952;-70
2021/12/19 00:38:27;;;;;;;7.83;5.62;;;;;;;-0.21;100.00;98952.56;1765750;81;20932;-67
2021/12/19 00:40:56;;;;;;;12.73;7.72;;;;;;;-0.19;99.92;98955.83;1765836;81;20920;-67
2021/12/19 00:43:34;;;;;;;7.85;5.15;;;;;;;-0.20;99.85;98944.70;1765811;81;21748;-68
2021/12/19 00:46:07;;;;;;;9.75;5.22;;;;;;;-0.19;99.87;98938.22;1764368;81;21468;-66
2021/12/19 00:48:33;;;;;;;9.73;6.35;;;;;;;-0.19;99.85;98927.39;1735495;81;21027;-67
2021/12/19 00:51:00;;;;;;;8.28;6.15;;;;;;;-0.19;99.80;98921.44;1765866;81;21461;-70
2021/12/19 00:53:29;;;;;;;7.97;5.47;;;;;;;-0.20;99.84;98917.61;1765765;81;20857;-67
2021/12/19 00:55:57;;;;;;;9.63;5.90;;;;;;;-0.20;99.82;98907.61;1765814;81;21534;-69
2021/12/19 00:58:23;;;;;;;8.70;6.45;;;;;;;-0.20;99.85;98901.36;1765822;81;21030;-67
2021/12/19 01:00:52;;;;;;;10.53;6.35;;;;;;;-0.22;99.84;98901.63;1765764;81;21499;-66
2021/12/19 01:03:20;;;;;;;12.40;6.92;;;;;;;-0.23;99.91;98900.02;1735761;81;21425;-70
2021/12/19 01:05:52;;;;;;;9.30;5.50;;;;;;;-0.23;99.97;98889.18;1765854;81;20909;-70
2021/12/19 01:08:20;;;;;;;10.20;6.40;;;;;;;-0.25;100.00;98882.67;1765808;81;21291;-67
2021/12/19 01:10:47;;;;;;;9.33;5.80;;;;;;;-0.25;100.00;98870.48;1735449;81;20841;-68
2021/12/19 01:13:15;;;;;;;13.50;7.97;;;;;;;-0.25;100.00;98879.97;1735651;81;21527;-68
2021/12/19 01:15:42;;;;;;;16.10;8.73;;;;;;;-0.25;100.00;98882.67;1765907;81;20936;-69
2021/12/19 01:18:12;;;;;;;16.05;8.45;;;;;;;-0.23;100.00;98876.17;1735875;81;20952;-67
2021/12/19 01:20:42;;;;;;;16.32;7.33;;;;;;;-0.23;100.00;98870.22;1765794;81;21149;-70
2021/12/19 01:23:11;;;;;;;9.15;7.03;;;;;;;-0.23;100.00;98869.40;1765974;81;20920;-66
2021/12/19 01:25:37;;;;;;;15.30;8.35;;;;;;;-0.21;100.00;98863.19;1765718;81;20923;-68
2021/12/19 01:28:05;;;;;;;12.58;7.90;;;;;;;-0.22;100.00;98854.80;1765869;81;20992;-67
2021/12/19 01:30:33;;;;;;;14.95;7.40;;;;;;;-0.21;100.00;98842.87;1765904;81;21291;-68
2021/12/19 01:33:00;;;;;;;17.75;9.75;;;;;;;-0.20;100.00;98837.72;1765640;81;21170;-67
2021/12/19 01:35:28;;;;;;;12.85;8.55;;;;;;;-0.19;100.00;98836.13;1735545;81;20997;-67
2021/12/19 01:37:54;;;;;;;16.07;8.40;;;;;;;-0.19;100.00;98824.47;1735587;81;21531;-71
2021/12/19 01:40:21;;;;;;;9.40;7.00;;;;;;;-0.18;100.00;98826.09;1765724;81;20888;-67
2021/12/19 01:42:49;;;;;;;13.30;7.20;;;;;;;-0.19;100.00;98814.99;1765803;81;20908;-66
2021/12/19 01:45:25;;;;;;;15.32;8.40;;;;;;;-0.20;100.00;98802.52;1765781;81;21309;-68
2021/12/19 01:47:53;;;;;;;12.05;6.58;;;;;;;-0.21;100.00;98793.59;1765803;81;20947;-68
2021/12/19 01:50:20;;;;;;;12.65;8.88;;;;;;;-0.21;100.00;98784.64;1765825;81;20916;-67
2021/12/19 01:52:50;;;;;;;11.55;7.85;;;;;;;-0.21;100.00;98776.52;1765721;81;20900;-67
2021/12/19 01:55:17;;;;;;;14.53;8.20;;;;;;;-0.21;100.00;98772.45;1735685;81;20932;-67
2021/12/19 01:57:45;;;;;;;13.83;7.50;;;;;;;-0.22;100.00;98765.42;1766265;81;21162;-67
2021/12/19 02:00:23;;;;;;;13.28;7.72;;;;;;;-0.21;100.00;98765.16;1765599;81;20969;-67
2021/12/19 02:02:50;;;;;;;12.10;8.00;;;;;;;-0.20;100.00;98753.77;1765963;81;21079;-67
2021/12/19 02:05:16;;;;;;;9.55;6.83;;;;;;;-0.19;100.00;98745.93;1765878;81;20888;-67
2021/12/19 02:07:50;;;;;;;13.35;7.37;;;;;;;-0.19;100.00;98737.80;1765689;81;20972;-66
2021/12/19 02:10:19;;;;;;;11.95;7.42;;;;;;;-0.17;100.00;98740.51;1766011;81;23355;-69
2021/12/19 02:12:48;;;;;;;10.65;6.50;;;;;;;-0.17;100.00;98734.30;1766067;81;20920;-67
2021/12/19 02:15:21;;;;;;;16.20;8.15;;;;;;;-0.18;100.00;98719.11;1735650;81;21480;-67
2021/12/19 02:17:49;;;;;;;8.53;6.45;;;;;;;-0.18;100.00;98721.81;1766261;81;20932;-68
2021/12/19 02:20:18;;;;;;;9.73;6.55;;;;;;;-0.20;100.00;98710.44;1765897;81;20920;-68
2021/12/19 02:22:45;;;;;;;12.03;7.62;;;;;;;-0.19;100.00;98705.31;1765682;81;21087;-66
2021/12/19 02:25:14;;;;;;;12.13;7.50;;;;;;;-0.18;100.00;98704.22;1765724;81;21043;-71
2021/12/19 02:27:41;;;;;;;8.93;6.35;;;;;;;-0.18;100.00;98700.16;1766178;81;20889;-67
2021/12/19 02:30:10;;;;;;;10.40;7.15;;;;;;;-0.17;100.00;98699.09;1765727;81;20894;-71
2021/12/19 02:32:39;;;;;;;13.85;8.10;;;;;;;-0.18;100.00;98698.80;1766001;81;20951;-66
2021/12/19 02:35:10;;;;;;;11.65;7.50;;;;;;;-0.17;100.00;98689.05;1766000;81;22027;-67
2021/12/19 02:48:35;;;;;;;8.90;6.20;;;;;;;-0.12;100.00;98663.89;1765849;81;21168;-68
2021/12/19 02:51:03;;;;;;;9.05;6.42;;;;;;;-0.12;100.00;98662.53;1765623;81;21023;-69
2021/12/19 02:53:34;;;;;;;10.78;7.12;;;;;;;-0.11;100.00;98649.25;1765707;81;20964;-68
2021/12/19 02:56:03;;;;;;;9.70;6.62;;;;;;;-0.11;100.00;98650.60;1735695;81;21397;-67
2021/12/19 02:58:32;;;;;;;9.43;6.67;;;;;;;-0.11;100.00;98643.83;1765944;81;20934;-68
2021/12/19 03:01:01;;;;;;;10.10;6.70;;;;;;;-0.10;100.00;98635.17;1765955;81;21509;-68
2021/12/19 03:03:30;;;;;;;9.40;6.58;;;;;;;-0.11;100.00;98630.83;1765797;81;21040;-67
2021/12/19 03:05:56;;;;;;;11.88;6.37;;;;;;;-0.12;100.00;98623.27;1735655;81;20940;-67
2021/12/19 03:08:30;;;;;;;10.30;6.90;;;;;;;-0.11;100.00;98624.05;1736521;81;20853;-68
2021/12/19 03:11:30;;;;;;;10.00;6.45;;;;;;;-0.13;100.00;98621.08;1765941;81;20833;-69
2021/12/19 03:18:43;;;;;;;19.37;10.85;;;;;;;-0.15;100.00;98589.39;1718309;81;20991;-67
2021/12/19 03:21:15;;;;;;;20.68;9.83;;;;;;;-0.15;100.00;98588.57;1765576;81;20984;-66
2021/12/19 03:23:39;;;;;;;16.15;8.90;;;;;;;-0.16;100.00;98581.54;1765589;81;21409;-67
2021/12/19 03:26:06;;;;;;;11.97;8.50;;;;;;;-0.18;100.00;98585.05;1735791;81;20987;-67
2021/12/19 03:28:32;;;;;;;21.80;11.48;;;;;;;-0.17;100.00;98569.09;1765810;81;21075;-66
2021/12/19 03:31:02;;;;;;;13.68;8.73;;;;;;;-0.16;100.00;98563.41;1765864;81;20957;-67
2021/12/19 03:33:30;;;;;;;18.77;10.65;;;;;;;-0.17;100.00;98552.28;1764306;81;20988;-69
2021/12/19 03:35:57;;;;;;;13.22;8.28;;;;;;;-0.16;100.00;98556.62;1765501;81;21086;-69
2021/12/19 03:38:27;;;;;;;14.15;8.00;;;;;;;-0.15;100.00;98545.23;1765757;81;20920;-68
2021/12/19 03:41:14;;;;;;;13.83;8.30;;;;;;;-0.15;100.00;98543.88;1732508;81;21386;-67
2021/12/19 03:43:34;;;;;;;14.15;8.58;;;;;;;-0.13;100.00;98536.30;1734322;81;21024;-66
2021/12/19 03:46:03;;;;;;;13.00;8.18;;;;;;;-0.14;100.00;98532.77;1765635;81;20896;-69
2021/12/19 03:48:29;;;;;;;11.20;7.37;;;;;;;-0.12;100.00;98529.82;1711180;81;21405;-67
2021/12/19 03:50:58;;;;;;;11.00;7.65;;;;;;;-0.11;100.00;98514.36;1765723;81;21086;-67
2021/12/19 03:53:26;;;;;;;12.03;7.65;;;;;;;-0.11;100.00;98511.12;1765731;81;20956;-66
2021/12/19 03:55:52;;;;;;;11.00;6.58;;;;;;;-0.10;100.00;98499.19;1766128;81;21517;-66
2021/12/19 03:58:23;;;;;;;9.23;6.60;;;;;;;-0.09;100.00;98496.77;1765490;81;21532;-68
2021/12/19 04:00:52;;;;;;;9.90;6.80;;;;;;;-0.08;100.00;98498.38;1765929;81;20985;-66
2021/12/19 04:03:21;;;;;;;14.07;8.55;;;;;;;-0.07;100.00;98493.22;1765846;81;21103;-69
2021/12/19 04:05:49;;;;;;;8.55;6.28;;;;;;;-0.05;100.00;98486.98;1735504;81;20971;-68
2021/12/19 04:08:18;;;;;;;7.83;6.37;;;;;;;-0.04;100.00;98481.03;1765929;81;20984;-67
2021/12/19 04:10:49;;;;;;;9.50;6.35;;;;;;;-0.02;100.00;98477.52;1735545;81;20993;-66
2021/12/19 04:13:16;;;;;;;8.73;6.00;;;;;;;-0.03;100.00;98471.28;1765879;81;21504;-66
2021/12/19 04:15:45;;;;;;;8.80;6.45;;;;;;;-0.01;100.00;98469.11;1766394;81;21099;-71
2021/12/19 04:18:13;;;;;;;8.85;5.75;;;;;;;0.00;100.00;98453.68;1736255;81;21531;-72
2021/12/19 04:20:41;;;;;;;9.95;6.95;;;;;;;0.02;100.00;98450.12;1765654;81;21011;-67
2021/12/19 04:23:08;;;;;;;10.90;6.58;;;;;;;0.03;100.00;98440.93;1765754;81;20948;-68
2021/12/19 04:25:34;;;;;;;10.55;7.00;;;;;;;0.04;100.00;98444.43;1735987;81;21086;-70
2021/12/19 04:28:07;;;;;;;11.38;6.83;;;;;;;0.04;100.00;98444.43;1765967;81;21167;-71
2021/12/19 04:30:36;;;;;;;11.38;6.40;;;;;;;0.05;100.00;98436.59;1766177;81;20924;-65
2021/12/19 04:33:07;;;;;;;9.00;6.03;;;;;;;0.05;100.00;98436.02;1765878;81;20971;-67
2021/12/19 04:35:36;;;;;;;10.30;6.80;;;;;;;0.06;100.00;98426.01;1766269;81;20947;-66
2021/12/19 04:56:46;;;;;;;8.73;5.95;;;;;;;0.07;100.00;98381.03;1765837;81;21666;-68
2021/12/19 04:59:48;;;;;;;8.35;5.40;;;;;;;0.08;100.00;98367.77;1763168;81;20984;-67
2021/12/19 05:04:42;;;;;;;11.25;7.17;;;;;;;0.08;100.00;98353.41;1765980;81;21059;-70
2021/12/19 05:15:27;;;;;;;8.20;6.25;;;;;;;0.08;100.00;98333.91;1735568;81;21472;-67
2021/12/19 05:18:01;;;;;;;8.85;5.85;;;;;;;0.09;100.00;98319.25;1735433;81;21283;-67
2021/12/19 05:20:28;;;;;;;7.40;5.55;;;;;;;0.09;100.00;98315.73;1764659;81;21535;-67
2021/12/19 05:23:03;;;;;;;10.08;6.55;;;;;;;0.10;100.00;98316.80;1765877;81;21456;-68
2021/12/19 05:25:26;;;;;;;9.20;5.45;;;;;;;0.13;100.00;98308.67;1735609;81;21505;-67
2021/12/19 05:27:55;;;;;;;9.53;5.50;;;;;;;0.15;100.00;98295.66;1765911;81;20996;-69
2021/12/19 05:30:25;;;;;;;9.20;5.40;;;;;;;0.16;100.00;98278.30;1765747;81;20987;-68
2021/12/19 05:32:55;;;;;;;8.90;5.65;;;;;;;0.19;100.00;98287.22;1735646;81;21104;-69
2021/12/19 05:46:26;;;;;;;9.75;6.53;;;;;;;0.24;100.00;98272.28;1734518;81;21815;-66
2021/12/19 05:48:57;;;;;;;9.53;6.20;;;;;;;0.24;100.00;98265.50;1760387;81;20984;-66
2021/12/19 05:51:29;;;;;;;9.25;6.05;;;;;;;0.26;100.00;98265.79;1760695;81;20988;-68
2021/12/19 05:53:57;;;;;;;9.45;5.92;;;;;;;0.28;100.00;98246.78;1734686;81;21543;-71
2021/12/19 05:56:24;;;;;;;10.40;6.37;;;;;;;0.30;100.00;98247.31;1760527;81;20917;-68
2021/12/19 05:58:55;;;;;;;10.60;6.75;;;;;;;0.31;100.00;98235.91;1760280;81;22167;-67
2021/12/19 06:01:21;;;;;;;11.20;6.55;;;;;;;0.31;100.00;98225.89;1760101;81;21066;-71
2021/12/19 06:03:48;;;;;;;8.90;6.15;;;;;;;0.32;100.00;98217.22;1760422;81;20953;-68
2021/12/19 06:06:21;;;;;;;10.55;6.10;;;;;;;0.33;100.00;98199.86;1760436;81;20941;-69
2021/12/19 06:08:51;;;;;;;10.98;6.50;;;;;;;0.34;100.00;98200.92;1734505;81;20940;-71
2021/12/19 06:11:25;;;;;;;9.25;6.65;;;;;;;0.34;100.00;98199.57;1760359;81;21530;-68
2021/12/19 06:13:52;;;;;;;12.03;6.95;;;;;;;0.37;100.00;98190.08;1760165;81;20920;-69
2021/12/19 06:16:19;;;;;;;12.88;7.10;;;;;;;0.37;100.00;98188.72;1760342;81;20885;-70
2021/12/19 06:18:47;;;;;;;10.13;6.97;;;;;;;0.38;100.00;98190.33;1760320;81;20948;-68
2021/12/19 06:21:19;;;;;;;13.60;8.03;;;;;;;0.38;100.00;98175.42;1756887;81;21040;-68
2021/12/19 06:23:49;;;;;;;12.37;7.53;;;;;;;0.41;100.00;98169.99;1760364;81;21152;-68
2021/12/19 06:26:17;;;;;;;10.82;6.78;;;;;;;0.42;100.00;98177.84;1760308;81;20984;-68
2021/12/19 06:28:43;;;;;;;14.35;8.15;;;;;;;0.42;100.00;98185.15;1760180;81;20925;-68
2021/12/19 06:31:15;;;;;;;16.05;7.35;;;;;;;0.43;100.00;98181.33;1735293;81;20889;-69
2021/12/19 06:33:50;;;;;;;17.67;7.20;;;;;;;0.45;100.00;98192.17;1760366;81;21011;-69
2021/12/19 06:36:18;;;;;;;11.70;6.92;;;;;;;0.46;100.00;98186.21;1760441;81;21565;-68
2021/12/19 06:38:52;;;;;;;14.65;7.83;;;;;;;0.48;100.00;98179.94;1734190;81;21496;-67
2021/12/19 06:41:21;;;;;;;23.73;11.45;;;;;;;0.51;100.00;98179.92;1760305;81;20929;-68
2021/12/19 06:43:49;;;;;;;20.02;9.65;;;;;;;0.52;100.00;98176.11;1760187;81;21000;-67
2021/12/19 06:46:20;;;;;;;12.63;7.65;;;;;;;0.54;100.00;98160.37;1760434;81;20938;-67
2021/12/19 06:48:46;;;;;;;12.47;7.83;;;;;;;0.54;100.00;98160.37;1760432;81;21750;-67
2021/12/19 06:51:14;;;;;;;16.30;8.28;;;;;;;0.54;100.00;98153.59;1760312;81;20976;-68
2021/12/19 06:53:48;;;;;;;14.13;8.60;;;;;;;0.54;100.00;98154.41;1760273;81;21524;-68
2021/12/19 06:56:15;;;;;;;11.55;7.62;;;;;;;0.54;100.00;98127.30;1760449;81;20908;-69
2021/12/19 06:58:44;;;;;;;12.73;7.00;;;;;;;0.55;100.00;98124.02;1734305;81;20911;-69
2021/12/19 07:01:17;;;;;;;11.70;7.35;;;;;;;0.55;100.00;98119.95;1760413;81;21800;-67
2021/12/19 07:03:45;;;;;;;14.47;8.43;;;;;;;0.55;100.00;98121.31;1734411;81;20969;-67
2021/12/19 07:06:13;;;;;;;13.48;7.92;;;;;;;0.56;100.00;98155.47;1734884;81;20984;-67
2021/12/19 07:08:40;;;;;;;18.20;9.20;;;;;;;0.56;100.00;98151.41;1734575;81;20897;-68
2021/12/19 07:11:08;;;;;;;11.90;7.97;;;;;;;0.56;100.00;98172.53;1735131;81;20964;-68
2021/12/19 07:13:34;;;;;;;15.15;8.10;;;;;;;0.57;100.00;98179.59;1760202;81;21142;-67
2021/12/19 07:16:06;;;;;;;12.40;7.12;;;;;;;0.58;100.00;98162.78;1760100;81;21588;-67
2021/12/19 07:18:37;;;;;;;14.67;8.37;;;;;;;0.59;100.00;98158.42;1734527;81;21062;-69
2021/12/19 07:21:06;;;;;;;13.95;7.35;;;;;;;0.59;100.00;98147.58;1734394;81;20921;-68
2021/12/19 07:23:36;;;;;;;12.98;8.58;;;;;;;0.61;100.00;98151.36;1760444;81;20925;-68
2021/12/19 07:26:03;;;;;;;16.15;9.28;;;;;;;0.62;100.00;98130.45;1734363;81;21739;-68
2021/12/19 07:28:29;;;;;;;17.37;8.80;;;;;;;0.62;100.00;98126.39;1734671;81;21403;-67
2021/12/19 07:30:57;;;;;;;12.82;9.00;;;;;;;0.63;100.00;98123.95;1760511;81;20960;-67
2021/12/19 07:33:23;;;;;;;16.57;8.90;;;;;;;0.63;100.00;98111.75;1760386;81;21477;-68
2021/12/19 07:35:55;;;;;;;14.25;8.88;;;;;;;0.65;100.00;98098.72;1760264;81;21072;-68
2021/12/19 07:38:31;;;;;;;15.10;9.55;;;;;;;0.65;100.00;98091.95;1734351;81;21099;-66
2021/12/19 07:40:59;;;;;;;12.47;8.60;;;;;;;0.66;100.00;98065.08;1733818;81;20898;-65
2021/12/19 07:43:27;;;;;;;13.58;8.95;;;;;;;0.66;100.00;98050.98;1734220;81;21051;-67
2021/12/19 07:45:56;;;;;;;13.35;8.18;;;;;;;0.65;100.00;98038.50;1760386;81;20972;-68
2021/12/19 07:48:23;;;;;;;16.20;9.60;;;;;;;0.68;100.00;98041.20;1760336;81;21527;-67
2021/12/19 07:50:52;;;;;;;14.87;9.35;;;;;;;0.67;100.00;98044.45;1760235;81;21117;-68
2021/12/19 07:53:24;;;;;;;17.12;9.75;;;;;;;0.68;100.00;98050.69;1759870;81;20968;-69
2021/12/19 07:56:02;;;;;;;16.37;9.25;;;;;;;0.68;100.00;98051.47;1759973;81;20952;-68
2021/12/19 07:58:51;;;;;;;18.30;10.10;;;;;;;0.69;100.00;98046.87;1753715;81;20975;-68
2021/12/19 08:01:25;;;;;;;15.88;10.00;;;;;;;0.70;100.00;98057.98;1760407;81;21028;-70
2021/12/19 08:03:56;;;;;;;15.98;10.28;;;;;;;0.71;100.00;98052.27;1760368;81;21072;-69
2021/12/19 08:06:23;;;;;;;22.67;11.38;;;;;;;0.73;100.00;98057.41;1760275;81;21017;-68
2021/12/19 08:08:55;;;;;;;17.87;11.18;;;;;;;0.75;100.00;98053.83;1734610;81;20829;-69
2021/12/19 08:11:39;;;;;;;20.72;11.63;;;;;;;0.77;100.00;98046.78;1760362;81;21067;-67
2021/12/19 08:14:12;;;;;;;20.17;10.85;;;;;;;0.77;100.00;98041.36;1738488;81;20928;-68
2021/12/19 08:16:44;;;;;;;20.55;11.18;;;;;;;0.79;100.00;98039.96;1760026;81;21812;-69
2021/12/19 08:19:19;;;;;;;20.00;12.03;;;;;;;0.82;100.00;98039.94;1760167;81;20975;-67
2021/12/19 08:21:54;;;;;;;18.73;11.53;;;;;;;0.83;100.00;98019.84;1736266;81;21011;-68
2021/12/19 08:24:23;;;;;;;18.60;10.95;;;;;;;0.86;100.00;98019.26;1748549;81;20957;-68
2021/12/19 08:26:50;;;;;;;18.25;10.35;;;;;;;0.87;100.00;98016.79;1734484;81;21064;-68
2021/12/19 08:29:21;;;;;;;21.20;11.70;;;;;;;0.88;100.00;98004.05;1760396;81;21164;-69
2021/12/19 08:31:51;;;;;;;22.60;11.83;;;;;;;0.89;100.00;98006.46;1760385;81;20995;-70
2021/12/19 08:34:21;;;;;;;22.87;10.70;;;;;;;0.92;100.00;98012.66;1760241;81;20953;-70
2021/12/19 08:36:50;;;;;;;20.85;11.12;;;;;;;0.95;100.00;98018.05;1760303;81;20939;-70
2021/12/19 08:39:28;;;;;;;20.62;11.85;;;;;;;0.97;100.00;98001.73;1760225;81;20900;-71
2021/12/19 08:42:06;;;;;;;26.73;13.45;;;;;;;0.99;100.00;97997.37;1760234;81;21201;-68
2021/12/19 08:44:37;;;;;;;18.37;10.95;;;;;;;1.00;100.00;97996.28;1759839;81;20877;-69
2021/12/19 08:47:11;;;;;;;19.73;10.98;;;;;;;0.97;100.00;97990.88;1734444;81;21513;-69
2021/12/19 08:49:40;;;;;;;17.98;10.58;;;;;;;0.97;100.00;97979.24;1759086;81;21394;-69
2021/12/19 08:52:12;;;;;;;20.08;11.05;;;;;;;0.99;100.00;97981.09;1760350;81;21040;-66
2021/12/19 08:54:43;;;;;;;17.62;10.13;;;;;;;1.00;100.00;97972.41;1760491;81;21172;-68
2021/12/19 08:57:10;;;;;;;20.27;11.80;;;;;;;1.01;100.00;97974.83;1760376;81;20941;-68
2021/12/19 08:59:42;;;;;;;18.82;10.35;;;;;;;1.03;100.00;97960.97;1760396;81;21398;-67
2021/12/19 09:02:12;;;;;;;17.95;10.23;;;;;;;1.03;100.00;97957.71;1759915;81;20881;-67
2021/12/19 09:04:41;;;;;;;22.22;10.95;;;;;;;1.04;100.00;97959.88;1760337;81;20945;-68
2021/12/19 09:07:09;;;;;;;17.40;9.73;;;;;;;1.02;100.00;97962.08;1760461;81;20869;-67
2021/12/19 09:09:37;;;;;;;20.68;9.98;;;;;;;1.01;100.00;97954.48;1760371;81;21492;-67
2021/12/19 09:12:05;;;;;;;17.23;9.03;;;;;;;0.97;100.00;97951.55;1760415;81;21509;-67
2021/12/19 09:14:33;;;;;;;19.23;9.60;;;;;;;0.93;100.00;97948.37;1734946;81;20992;-68
2021/12/19 09:17:02;;;;;;;15.45;8.30;;;;;;;0.88;100.00;97942.48;1760408;81;20881;-68
2021/12/19 09:19:30;;;;;;;15.43;9.13;;;;;;;0.83;100.00;97941.20;1760352;81;21562;-67
2021/12/19 09:21:58;;;;;;;17.10;8.73;;;;;;;0.77;100.00;97935.60;1760328;81;20967;-68
2021/12/19 09:24:29;;;;;;;15.23;7.65;;;;;;;0.72;100.00;97933.75;1709163;81;21000;-70
2021/12/19 09:26:55;;;;;;;15.25;8.25;;;;;;;0.66;100.00;97919.48;1760427;81;21473;-67
2021/12/19 09:29:28;;;;;;;16.02;7.92;;;;;;;0.59;100.00;97917.13;1760362;81;20996;-69
2021/12/19 09:31:58;;;;;;;13.53;7.45;;;;;;;0.53;100.00;97913.43;1760724;81;20960;-69
2021/12/19 15:07:49;;;;;;;5.15;2.70;;;;;;;1.87;100.00;97586.88;1814512;77;22317;-67
2021/12/19 15:10:22;;;;;;;6.65;3.30;;;;;;;1.91;100.00;97587.30;1814324;79;20958;-67
2021/12/19 15:12:49;;;;;;;7.03;2.77;;;;;;;1.96;100.00;97578.24;1787344;79;21018;-68
2021/12/19 15:15:16;;;;;;;10.18;3.75;;;;;;;2.02;100.00;97580.25;1814532;79;21001;-67
2021/12/19 15:17:44;;;;;;;5.08;2.80;;;;;;;2.05;100.00;97580.98;1787074;79;20924;-67
2021/12/19 15:20:12;;;;;;;5.97;3.27;;;;;;;2.09;100.00;97578.45;1814425;79;20970;-68
2021/12/19 15:22:41;;;;;;;5.65;3.47;;;;;;;2.10;100.00;97576.78;1814419;79;20978;-68
2021/12/19 15:25:08;;;;;;;8.55;2.67;;;;;;;2.11;100.00;97571.61;1814445;79;21114;-67
2021/12/19 15:27:38;;;;;;;6.35;3.22;;;;;;;2.14;100.00;97564.19;1786967;79;20828;-68
2021/12/19 15:30:07;;;;;;;5.47;3.00;;;;;;;2.14;100.00;97572.34;1814369;79;20962;-68
2021/12/19 15:32:34;;;;;;;7.05;3.17;;;;;;;2.16;100.00;97573.38;1814866;79;20923;-68
2021/12/19 15:35:05;;;;;;;4.42;3.05;;;;;;;2.18;100.00;97569.80;1787049;79;20931;-68
2021/12/19 15:37:32;;;;;;;5.45;3.22;;;;;;;2.22;100.00;97563.19;1814213;79;21037;-68
2021/12/19 15:40:00;;;;;;;5.70;2.95;;;;;;;2.25;100.00;97565.28;1814263;79;21387;-67
2021/12/19 15:42:30;;;;;;;5.45;3.22;;;;;;;2.28;100.00;97557.86;1814993;79;20935;-67
2021/12/19 15:44:56;;;;;;;7.10;3.65;;;;;;;2.28;100.00;97565.46;1814396;79;20915;-68
2021/12/19 15:47:22;;;;;;;8.60;3.62;;;;;;;2.31;100.00;97561.30;1814984;79;20927;-67
2021/12/19 15:49:49;;;;;;;7.33;3.60;;;;;;;2.32;100.00;97564.25;1814443;79;21454;-67
2021/12/19 15:52:19;;;;;;;6.58;3.42;;;;;;;2.33;100.00;97559.08;1814324;79;20867;-67
2021/12/19 15:54:45;;;;;;;6.40;3.58;;;;;;;2.32;100.00;97560.17;1787077;79;20899;-67
2021/12/19 15:57:13;;;;;;;6.80;3.92;;;;;;;2.33;100.00;97552.28;1829301;77;20980;-67
2021/12/19 15:59:43;;;;;;;5.87;3.20;;;;;;;2.33;100.00;97549.56;1847640;77;20970;-67
2021/12/19 16:02:09;;;;;;;6.75;3.92;;;;;;;2.34;100.00;97547.08;1847638;77;20920;-67
2021/12/19 16:04:36;;;;;;;9.48;5.05;;;;;;;2.33;100.00;97553.64;1847591;77;21042;-67
2021/12/19 16:07:04;;;;;;;8.10;3.10;;;;;;;2.33;100.00;97552.28;1846032;77;21015;-68
2021/12/19 16:09:33;;;;;;;10.45;3.85;;;;;;;2.33;100.00;97551.47;1844290;77;20904;-67
2021/12/19 16:12:00;;;;;;;7.55;3.67;;;;;;;2.31;100.00;97544.99;1844331;77;21546;-67
2021/12/19 16:14:29;;;;;;;4.95;2.65;;;;;;;2.30;100.00;97553.70;1844255;77;22080;-66
2021/12/19 16:16:55;;;;;;;5.85;2.95;;;;;;;2.25;100.00;97547.04;1844579;77;21508;-67
2021/12/19 16:19:23;;;;;;;6.25;2.12;;;;;;;2.21;100.00;97553.42;1844569;77;21475;-67
2021/12/19 16:21:51;;;;;;;9.60;2.60;;;;;;;2.18;100.00;97551.56;1818783;77;20932;-67
2021/12/19 16:24:17;;;;;;;9.03;3.08;;;;;;;2.17;100.00;97562.20;1844021;77;20852;-66
2021/12/19 16:26:46;;;;;;;5.03;2.40;;;;;;;2.16;100.00;97557.89;1844946;77;21096;-68
2021/12/19 16:29:14;;;;;;;4.85;3.00;;;;;;;2.15;100.00;97560.92;1844418;77;20868;-68
2021/12/19 16:31:41;;;;;;;5.87;2.98;;;;;;;2.14;100.00;97562.02;1844274;77;20947;-66
2021/12/19 16:34:12;;;;;;;4.25;2.27;;;;;;;2.11;100.00;97556.66;1844383;77;21481;-66
2021/12/19 16:36:38;;;;;;;5.45;2.40;;;;;;;2.04;100.00;97571.24;1844277;77;20883;-67
2021/12/19 16:39:10;;;;;;;4.70;2.70;;;;;;;2.01;100.00;97576.75;1844338;77;21490;-66
2021/12/19 16:41:48;;;;;;;3.08;1.77;;;;;;;1.97;100.00;97587.17;1844498;77;21382;-67
2021/12/19 16:44:17;;;;;;;2.92;1.42;;;;;;;1.89;100.00;97592.27;1844346;77;20888;-68
2021/12/19 16:46:45;;;;;;;3.02;1.90;;;;;;;1.81;100.00;97578.86;1818395;77;20919;-67
2021/12/19 16:49:12;;;;;;;5.22;2.35;;;;;;;1.73;100.00;97582.86;1844445;77;20954;-66
2021/12/19 16:51:39;;;;;;;3.08;1.72;;;;;;;1.65;100.00;97582.52;1818689;77;21119;-68
2021/12/19 16:54:05;;;;;;;5.05;2.33;;;;;;;1.58;100.00;97580.77;1844315;77;20978;-66
2021/12/19 16:56:35;;;;;;;5.53;3.05;;;;;;;1.51;100.00;97578.48;1843633;77;20991;-66
2021/12/19 16:59:02;;;;;;;6.20;2.98;;;;;;;1.50;100.00;97576.86;1818578;77;20904;-66
2021/12/19 17:01:28;;;;;;;4.15;2.17;;;;;;;1.47;100.00;97578.06;1844369;77;21388;-66
2021/12/19 17:03:57;;;;;;;6.90;2.67;;;;;;;1.48;100.00;97581.01;1844659;77;21860;-67
2021/12/19 17:06:24;;;;;;;3.40;2.12;;;;;;;1.45;100.00;97586.52;1817368;78;21448;-67
2021/12/19 17:08:52;;;;;;;3.25;1.70;;;;;;;1.44;100.00;97589.77;1838726;78;21436;-65
2021/12/19 17:11:22;;;;;;;2.98;1.57;;;;;;;1.43;100.00;97593.58;1813051;78;20904;-67
2021/12/19 17:14:05;;;;;;;4.08;1.50;;;;;;;1.42;100.00;97596.05;1838674;78;20979;-67
2021/12/19 17:16:24;;;;;;;2.27;1.67;;;;;;;1.38;99.71;97592.34;1836836;78;22122;-67
2021/12/19 17:18:57;;;;;;;4.28;1.72;;;;;;;1.33;99.48;97588.41;1813080;78;20995;-66
2021/12/19 17:21:25;;;;;;;3.52;1.60;;;;;;;1.30;99.52;97593.88;1838583;78;20887;-66
2021/12/19 17:23:53;;;;;;;3.98;1.60;;;;;;;1.29;99.58;97596.90;1838454;78;20920;-67
2021/12/19 17:26:19;;;;;;;4.28;2.27;;;;;;;1.31;99.68;97602.83;1838780;78;20844;-66
2021/12/19 17:28:47;;;;;;;2.98;1.47;;;;;;;1.32;99.68;97599.81;1838868;78;21758;-66
2021/12/19 17:31:13;;;;;;;4.15;2.30;;;;;;;1.31;99.03;97602.25;1838728;78;20900;-68
2021/12/19 17:33:41;;;;;;;5.65;1.90;;;;;;;1.29;98.90;97595.55;1838584;78;21492;-66
2021/12/19 17:36:11;;;;;;;3.90;1.98;;;;;;;1.28;98.50;97591.23;1838485;78;21421;-68
2021/12/19 17:38:37;;;;;;;6.70;3.90;;;;;;;1.25;98.32;97597.25;1838789;78;21468;-64
2021/12/19 17:41:10;;;;;;;4.17;2.47;;;;;;;1.24;98.31;97598.37;1838512;78;20919;-67
2021/12/19 17:43:37;;;;;;;4.42;1.95;;;;;;;1.24;98.23;97595.66;1838513;78;20948;-67
2021/12/19 17:46:04;;;;;;;1.85;1.47;;;;;;;1.18;97.34;97597.12;1838702;78;20935;-68
2021/12/19 17:48:37;;;;;;;4.28;2.08;;;;;;;1.17;97.38;97602.86;1838337;78;21468;-67
2021/12/19 17:51:04;;;;;;;8.25;3.17;;;;;;;1.15;97.42;97600.45;1838866;78;20904;-66
2021/12/19 17:53:33;;;;;;;5.85;3.10;;;;;;;1.15;97.14;97607.23;1812905;78;21044;-67
2021/12/19 17:56:02;;;;;;;4.37;2.37;;;;;;;1.13;96.89;97606.73;1838896;78;20945;-68
2021/12/19 17:58:30;;;;;;;7.50;2.72;;;;;;;1.09;96.87;97618.73;1838505;78;20980;-66
2021/12/19 18:00:56;;;;;;;5.37;2.62;;;;;;;1.09;96.97;97613.31;1838848;78;20895;-66
2021/12/19 18:03:28;;;;;;;7.20;3.67;;;;;;;1.09;96.96;97609.24;1838599;78;21361;-65
2021/12/19 18:05:55;;;;;;;8.90;3.70;;;;;;;1.09;96.83;97616.02;1838319;78;21159;-66
2021/12/19 18:08:24;;;;;;;12.50;4.12;;;;;;;1.07;96.63;97620.16;1843586;77;21480;-66
2021/12/19 18:10:54;;;;;;;6.72;3.27;;;;;;;0.96;96.18;97612.23;1844238;77;21535;-66